Time;durP1;ratioP1;P1;durP2;ratioP2;P2;SDS_P1;SDS_P2;PMS_P1;PMS_P2;Temp;Humidity;BMP_temperature;BMP_pressure;BME280_temperature;BME280_humidity;BME280_pressure;Samples;Min_cycle;Max_cycle;Signal;HPM_P1;HPM_P2
2023/04/01 05:29:16;;;;;;;10.67;5.97;;;9.70;40.70;;;;;;5549676;23;20353;-96
2023/04/01 05:31:43;;;;;;;12.87;6.67;;;9.70;28.10;;;;;;4899881;29;20578;-96
2023/04/01 05:34:10;;;;;;;12.33;7.03;;;9.70;42.40;;;;;;4900585;29;20205;-96
2023/04/01 05:36:37;;;;;;;16.47;9.87;;;9.70;37.30;;;;;;4900481;29;20203;-96
2023/04/01 05:39:04;;;;;;;14.80;9.83;;;9.70;1.00;;;;;;4902508;29;20208;-96
2023/04/01 05:41:30;;;;;;;28.70;14.73;;;9.60;1.00;;;;;;4886667;29;20254;-95
2023/04/01 05:43:57;;;;;;;10.03;5.13;;;9.60;1.00;;;;;;4881719;29;20201;-96
2023/04/01 05:46:26;;;;;;;11.27;6.77;;;9.60;1.00;;;;;;4885969;29;20210;-96
2023/04/01 05:48:52;;;;;;;9.67;5.27;;;9.60;1.00;;;;;;4903194;29;20751;-96
2023/04/01 05:51:19;;;;;;;9.40;5.43;;;9.60;1.00;;;;;;4902692;29;20224;-95
2023/04/01 05:53:46;;;;;;;8.47;5.00;;;9.60;1.00;;;;;;4902127;29;20293;-95
2023/04/01 05:56:13;;;;;;;9.73;5.27;;;9.60;1.00;;;;;;4900737;29;20288;-96
2023/04/01 05:58:40;;;;;;;7.60;4.87;;;9.50;1.00;;;;;;4900212;29;20199;-96
2023/04/01 06:01:09;;;;;;;8.60;4.77;;;9.50;1.00;;;;;;4900676;29;20204;-96
2023/04/01 06:03:38;;;;;;;8.30;5.17;;;9.50;1.00;;;;;;4901527;29;20210;-95
2023/04/01 06:06:14;;;;;;;12.37;5.87;;;9.50;1.00;;;;;;4905199;29;20265;-96
2023/04/01 06:08:41;;;;;;;9.90;4.83;;;9.40;1.00;;;;;;4903767;29;20211;-96
2023/04/01 06:11:22;;;;;;;7.23;4.53;;;9.40;1.00;;;;;;4909275;29;20221;-96
2023/04/01 06:14:05;;;;;;;7.03;4.50;;;9.40;1.00;;;;;;4909888;29;20213;-96
2023/04/01 06:16:41;;;;;;;9.70;5.60;;;9.40;1.00;;;;;;4907997;29;20240;-96
2023/04/01 06:19:23;;;;;;;7.63;4.37;;;9.40;1.00;;;;;;4906728;29;20204;-96
2023/04/01 06:22:09;;;;;;;10.27;5.20;;;9.40;1.00;;;;;;4903126;29;20201;-96
2023/04/01 06:24:47;;;;;;;7.20;4.37;;;9.40;1.00;;;;;;4899935;29;20190;-96
2023/04/01 06:27:24;;;;;;;9.40;5.63;;;9.30;1.00;;;;;;4907849;29;20193;-96
2023/04/01 06:30:12;;;;;;;10.97;6.57;;;9.30;1.00;;;;;;4899991;29;20317;-96
2023/04/01 06:32:55;;;;;;;9.10;3.80;;;9.20;1.00;;;;;;4900006;29;20198;-96
2023/04/01 06:35:35;;;;;;;10.90;6.00;;;9.30;1.00;;;;;;4899647;29;20212;-96
2023/04/01 06:38:30;;;;;;;10.97;6.17;;;9.20;1.00;;;;;;4896273;29;20210;-96
2023/04/01 06:41:30;;;;;;;6.87;3.80;;;9.20;1.00;;;;;;4899981;29;20192;-94
2023/04/01 06:44:06;;;;;;;11.13;5.10;;;9.20;1.00;;;;;;4879534;29;20206;-95
2023/04/01 06:46:40;;;;;;;8.80;4.60;;;9.20;1.00;;;;;;4899631;29;20554;-95
2023/04/01 06:49:32;;;;;;;7.33;3.70;;;9.20;1.00;;;;;;4900698;29;20196;-95
2023/04/01 06:52:09;;;;;;;9.73;5.03;;;9.10;1.00;;;;;;4900405;29;20235;-95
2023/04/01 06:54:39;;;;;;;10.47;5.07;;;9.10;1.00;;;;;;4900254;29;20215;-96
2023/04/01 06:57:17;;;;;;;7.80;4.03;;;9.00;1.00;;;;;;4901040;29;20207;-96
2023/04/01 06:59:47;;;;;;;9.47;4.50;;;8.90;1.00;;;;;;4910806;29;20295;-96
2023/04/01 07:02:24;;;;;;;13.60;6.73;;;8.90;1.00;;;;;;4908702;29;20657;-96
2023/04/01 07:04:54;;;;;;;12.63;6.03;;;8.90;1.00;;;;;;4910344;29;20196;-96
2023/04/01 07:07:32;;;;;;;10.87;6.07;;;8.90;1.00;;;;;;4906856;29;20283;-96
2023/04/01 07:10:01;;;;;;;11.00;5.87;;;8.80;1.00;;;;;;4902624;29;20198;-96
2023/04/01 07:12:37;;;;;;;10.43;5.20;;;8.80;1.00;;;;;;4894577;29;20227;-96
2023/04/01 07:15:14;;;;;;;15.07;7.20;;;8.80;1.00;;;;;;4915669;29;20204;-96
2023/04/01 07:17:44;;;;;;;16.57;7.80;;;8.80;1.00;;;;;;4920249;29;20526;-96
2023/04/01 07:20:26;;;;;;;13.53;6.67;;;8.80;1.00;;;;;;4977359;23;20680;-96
2023/04/01 07:22:59;;;;;;;13.57;6.93;;;8.80;1.00;;;;;;4929946;29;20200;-96
2023/04/01 07:25:31;;;;;;;14.07;7.57;;;8.80;1.00;;;;;;4926058;29;20218;-96
2023/04/01 07:28:04;;;;;;;16.83;8.37;;;8.80;1.00;;;;;;4924175;29;20190;-96
2023/04/01 07:31:10;;;;;;;13.73;7.00;;;8.80;1.00;;;;;;4999287;23;20235;-96
2023/04/01 07:39:06;;;;;;;13.47;6.27;;;8.80;1.00;;;;;;5193957;23;20236;-96
2023/04/01 07:41:41;;;;;;;13.67;7.00;;;8.80;1.00;;;;;;4889427;29;20219;-95
2023/04/01 07:44:18;;;;;;;13.93;7.27;;;8.80;1.00;;;;;;4889239;29;20203;-95
2023/04/01 07:47:00;;;;;;;11.83;6.47;;;8.80;1.00;;;;;;4891563;29;20222;-96
2023/04/01 07:49:32;;;;;;;10.50;5.70;;;8.90;1.00;;;;;;4889777;29;20224;-96
2023/04/01 07:52:05;;;;;;;10.03;5.70;;;8.90;99.90;;;;;;4886651;29;20222;-95
2023/04/01 07:54:43;;;;;;;10.10;6.13;;;9.00;99.90;;;;;;4886384;29;20207;-96
2023/04/01 07:57:17;;;;;;;9.00;5.30;;;9.00;99.90;;;;;;4885797;29;20658;-96
2023/04/01 07:59:52;;;;;;;9.30;5.30;;;9.00;46.70;;;;;;4884572;29;20249;-96
2023/04/01 08:02:32;;;;;;;9.93;5.37;;;9.00;1.00;;;;;;4884810;29;20188;-95
2023/04/01 08:05:07;;;;;;;10.57;5.90;;;9.00;1.00;;;;;;4890131;29;20197;-96
2023/04/01 08:07:45;;;;;;;8.50;5.40;;;8.90;1.00;;;;;;4891035;29;20292;-96
2023/04/01 08:10:21;;;;;;;10.67;6.33;;;8.90;1.00;;;;;;4886109;29;20199;-96
2023/04/01 08:13:00;;;;;;;10.80;6.63;;;9.00;1.00;;;;;;4884224;29;20208;-94
2023/04/01 08:15:32;;;;;;;9.60;5.70;;;9.00;1.00;;;;;;4883641;29;20187;-94
2023/04/01 08:18:07;;;;;;;8.10;4.50;;;8.90;1.00;;;;;;4883269;29;20211;-93
2023/04/01 08:20:40;;;;;;;8.80;5.00;;;9.00;1.00;;;;;;4883007;29;20757;-93
2023/04/01 08:23:15;;;;;;;9.43;5.03;;;9.00;1.00;;;;;;4883252;29;20194;-95
2023/04/01 08:25:49;;;;;;;8.50;5.20;;;9.10;1.00;;;;;;4883118;29;20204;-95
2023/04/01 08:28:21;;;;;;;8.50;5.13;;;9.20;1.00;;;;;;4883392;29;20282;-93
2023/04/01 08:30:53;;;;;;;9.23;4.90;;;9.20;1.00;;;;;;4883265;29;20201;-95
2023/04/01 08:33:24;;;;;;;8.10;4.77;;;9.20;1.00;;;;;;4882607;29;20668;-92
2023/04/01 08:35:56;;;;;;;9.00;4.77;;;9.30;99.90;;;;;;4882893;29;20202;-93
2023/04/01 08:38:29;;;;;;;8.20;4.87;;;9.30;99.90;;;;;;4882310;29;20570;-94
2023/04/01 08:41:02;;;;;;;7.13;4.83;;;9.30;99.90;;;;;;4881000;29;20207;-92
2023/04/01 08:44:02;;;;;;;8.20;5.47;;;9.10;99.90;;;;;;4883219;29;20693;-94
2023/04/01 08:47:01;;;;;;;10.10;5.57;;;9.00;99.90;;;;;;4882583;29;20200;-94
2023/04/01 08:49:47;;;;;;;10.33;6.00;;;9.00;99.90;;;;;;4882385;29;20202;-94
2023/04/01 08:52:27;;;;;;;7.93;4.87;;;9.00;99.90;;;;;;4882383;29;20226;-95
2023/04/01 08:55:22;;;;;;;9.00;5.47;;;8.90;99.90;;;;;;4881545;29;20205;-94
2023/04/01 08:58:03;;;;;;;11.43;5.37;;;8.90;1.00;;;;;;4882484;29;20203;-94
2023/04/01 09:00:33;;;;;;;9.77;5.07;;;8.90;1.00;;;;;;4882455;29;20208;-94
2023/04/01 09:03:24;;;;;;;9.67;5.23;;;8.80;1.00;;;;;;4882446;29;20204;-95
2023/04/01 09:06:20;;;;;;;5.07;3.20;;;8.80;1.00;;;;;;4864104;29;20402;-92
2023/04/01 09:09:02;;;;;;;6.70;3.83;;;8.80;1.00;;;;;;4868522;29;20271;-92
2023/04/01 09:11:40;;;;;;;5.33;3.30;;;8.80;1.00;;;;;;4884591;29;20220;-92
2023/04/01 09:14:28;;;;;;;9.90;5.03;;;8.70;1.00;;;;;;4885047;29;20208;-93
2023/04/01 09:17:18;;;;;;;5.27;3.23;;;8.70;1.00;;;;;;4882179;29;20283;-91
2023/04/01 09:20:02;;;;;;;6.50;4.30;;;8.70;1.00;;;;;;4848001;29;20197;-92
2023/04/01 09:22:47;;;;;;;5.50;3.47;;;8.70;99.90;;;;;;4863459;29;20206;-91
2023/04/01 09:25:40;;;;;;;5.30;3.50;;;8.60;1.00;;;;;;4871743;29;20197;-93
2023/04/01 09:28:13;;;;;;;4.43;3.03;;;8.60;1.00;;;;;;4868942;29;20210;-92
2023/04/01 09:31:05;;;;;;;5.63;3.13;;;8.60;1.00;;;;;;4881912;29;20200;-92
2023/04/01 09:34:17;;;;;;;6.17;4.47;;;8.50;1.00;;;;;;4881899;29;20212;-92
2023/04/01 09:36:46;;;;;;;4.90;3.80;;;8.50;1.00;;;;;;4881742;29;20203;-91
2023/04/01 09:39:45;;;;;;;5.30;3.07;;;8.40;1.00;;;;;;4881400;29;20228;-93
2023/04/01 09:42:33;;;;;;;5.93;3.33;;;8.40;1.00;;;;;;4875307;29;20204;-91
2023/04/01 09:45:02;;;;;;;4.40;3.40;;;8.40;1.00;;;;;;4885789;29;20206;-92
2023/04/01 09:47:49;;;;;;;5.40;3.60;;;8.40;1.00;;;;;;4881819;29;20207;-92
2023/04/01 09:50:36;;;;;;;3.73;3.33;;;8.40;1.00;;;;;;4864345;29;20190;-93
2023/04/01 09:53:27;;;;;;;3.57;2.97;;;8.40;1.00;;;;;;4862928;29;20343;-92
2023/04/01 09:56:24;;;;;;;4.87;4.00;;;8.40;1.00;;;;;;4880783;29;20203;-91
2023/04/01 09:59:31;;;;;;;6.33;4.00;;;8.40;33.80;;;;;;4882429;29;20204;-91
2023/04/01 10:02:34;;;;;;;5.83;3.57;;;8.40;10.00;;;;;;4884436;29;20278;-92
2023/04/01 10:05:51;;;;;;;4.23;3.57;;;8.40;1.00;;;;;;4874391;29;20224;-92
2023/04/01 10:08:40;;;;;;;4.73;3.67;;;8.40;1.00;;;;;;4881133;29;20213;-91
2023/04/01 10:11:31;;;;;;;5.53;4.20;;;8.40;1.00;;;;;;4880810;29;20201;-92
2023/04/01 10:14:37;;;;;;;4.47;3.50;;;8.40;1.00;;;;;;4881087;29;20197;-91
2023/04/01 10:17:32;;;;;;;6.93;4.17;;;8.40;1.00;;;;;;4880187;29;20213;-92
2023/04/01 10:20:21;;;;;;;4.63;3.70;;;8.40;1.00;;;;;;4876662;29;20195;-93
2023/04/01 10:23:16;;;;;;;5.63;4.50;;;8.40;1.00;;;;;;4871648;29;20196;-91
2023/04/01 10:26:23;;;;;;;5.43;3.70;;;8.40;1.00;;;;;;4878488;29;20205;-92
2023/04/01 10:29:19;;;;;;;6.80;4.23;;;8.50;1.00;;;;;;4873733;29;20211;-92
2023/04/01 10:32:24;;;;;;;5.83;4.27;;;8.50;1.00;;;;;;4878343;29;20272;-92
2023/04/01 10:35:30;;;;;;;3.93;3.40;;;8.60;1.00;;;;;;4881970;29;20217;-91
2023/04/01 10:38:23;;;;;;;6.50;4.40;;;8.70;1.00;;;;;;4881518;29;20230;-91
2023/04/01 10:41:09;;;;;;;5.30;3.63;;;8.70;1.00;;;;;;4882204;29;20642;-91
2023/04/01 10:44:11;;;;;;;6.40;4.40;;;8.80;1.00;;;;;;4879300;29;20688;-91
2023/04/01 10:47:11;;;;;;;5.37;4.00;;;8.80;1.00;;;;;;4879419;29;20193;-92
2023/04/01 10:50:17;;;;;;;5.50;4.27;;;9.00;1.00;;;;;;4881678;29;20270;-91
2023/04/01 10:53:19;;;;;;;5.60;4.27;;;9.20;1.00;;;;;;4815607;29;20251;-92
2023/04/01 10:56:30;;;;;;;4.23;3.53;;;9.30;1.00;;;;;;4783103;30;20247;-91
2023/04/01 10:59:32;;;;;;;5.47;4.20;;;9.30;66.10;;;;;;4773408;30;20312;-93
2023/04/01 11:02:41;;;;;;;5.03;3.90;;;9.50;1.00;;;;;;4778159;30;20297;-92
2023/04/01 11:05:51;;;;;;;4.70;3.77;;;9.70;1.00;;;;;;4771325;30;20201;-92
2023/04/01 11:09:00;;;;;;;5.43;3.47;;;9.70;99.90;;;;;;4782224;30;20701;-92
2023/04/01 11:12:04;;;;;;;3.87;2.90;;;9.60;60.30;;;;;;4772873;30;20300;-92
2023/04/01 11:15:07;;;;;;;4.23;3.33;;;9.50;22.50;;;;;;4770455;30;20213;-93
2023/04/01 11:18:02;;;;;;;5.33;3.57;;;9.40;99.90;;;;;;4770893;30;20293;-93
2023/04/01 11:21:05;;;;;;;5.07;3.77;;;9.40;99.90;;;;;;4773174;30;20295;-92
2023/04/01 11:23:51;;;;;;;4.30;3.80;;;9.40;99.90;;;;;;4777026;30;20213;-93
2023/04/01 11:26:31;;;;;;;5.00;3.63;;;9.40;99.90;;;;;;4777218;30;20729;-92
2023/04/01 11:29:32;;;;;;;3.63;2.90;;;9.40;99.90;;;;;;4828555;29;20273;-93
2023/04/01 11:32:08;;;;;;;3.43;2.27;;;9.40;1.00;;;;;;4843016;29;20235;-92
2023/04/01 11:34:52;;;;;;;2.87;2.40;;;9.40;99.90;;;;;;4883096;29;20296;-93
2023/04/01 11:37:35;;;;;;;3.07;2.50;;;9.50;99.90;;;;;;4883113;29;20193;-92
2023/04/01 11:40:13;;;;;;;3.90;3.03;;;9.50;1.00;;;;;;4883050;29;20201;-93
2023/04/01 11:42:48;;;;;;;4.80;2.97;;;9.40;1.00;;;;;;4883075;29;20208;-91
2023/04/01 11:45:28;;;;;;;3.40;2.90;;;9.40;1.00;;;;;;4882964;29;20193;-92
2023/04/01 11:48:20;;;;;;;4.47;3.07;;;9.40;1.00;;;;;;4883580;29;20560;-94
2023/04/01 11:51:26;;;;;;;3.63;3.00;;;9.40;1.00;;;;;;4883581;29;20201;-92
2023/04/01 11:54:04;;;;;;;4.50;3.27;;;9.30;1.00;;;;;;4823923;29;20767;-93
2023/04/01 11:56:56;;;;;;;4.87;3.30;;;9.30;1.00;;;;;;4813364;29;20234;-94
2023/04/01 12:00:01;;;;;;;3.10;2.60;;;9.30;99.90;;;;;;4807288;29;20210;-93
2023/04/01 12:02:41;;;;;;;4.60;3.53;;;9.20;99.90;;;;;;4806431;29;20206;-94
2023/04/01 12:05:35;;;;;;;4.77;3.90;;;9.20;99.90;;;;;;4808908;29;20708;-94
2023/04/01 12:08:10;;;;;;;6.20;3.30;;;9.20;99.90;;;;;;4807015;29;20214;-94
2023/04/01 12:10:42;;;;;;;4.77;3.57;;;9.20;32.00;;;;;;4807979;29;20273;-93
2023/04/01 12:13:19;;;;;;;3.13;2.60;;;9.20;56.40;;;;;;4807964;29;20228;-94
2023/04/01 12:15:57;;;;;;;4.33;3.30;;;9.30;99.90;;;;;;4807912;29;20199;-94
2023/04/01 12:18:35;;;;;;;5.00;2.87;;;9.40;1.00;;;;;;4797128;29;20201;-93
2023/04/01 12:21:10;;;;;;;4.03;3.13;;;9.40;1.00;;;;;;4807602;29;20208;-94
2023/04/01 12:24:07;;;;;;;3.60;3.30;;;9.40;1.00;;;;;;4813426;29;20209;-93
2023/04/01 12:26:53;;;;;;;4.70;3.87;;;9.40;1.00;;;;;;4821669;29;20211;-94
2023/04/01 12:29:50;;;;;;;6.80;3.87;;;9.40;1.00;;;;;;4901399;29;20567;-93
2023/04/01 12:32:24;;;;;;;4.13;3.17;;;9.50;1.00;;;;;;4888744;29;20229;-93
2023/04/01 12:35:06;;;;;;;4.20;3.80;;;9.60;1.00;;;;;;4882724;29;20182;-94
2023/04/01 12:37:40;;;;;;;3.30;3.00;;;9.60;99.90;;;;;;4882603;29;20280;-94
2023/04/01 12:40:30;;;;;;;4.43;3.30;;;9.60;99.90;;;;;;4864101;29;20248;-96
2023/04/01 12:43:10;;;;;;;4.83;3.43;;;9.60;99.90;;;;;;4864016;29;20202;-95
2023/04/01 12:45:43;;;;;;;3.47;3.13;;;9.60;99.90;;;;;;4865092;29;20190;-95
2023/04/01 12:48:33;;;;;;;4.93;3.90;;;9.60;82.10;;;;;;4900938;29;20198;-95
2023/04/01 12:51:35;;;;;;;3.47;3.10;;;9.60;99.90;;;;;;4885037;29;20187;-96
2023/04/01 12:54:47;;;;;;;4.30;3.27;;;9.50;99.90;;;;;;4881732;29;20215;-95
2023/04/01 12:57:29;;;;;;;4.03;3.60;;;9.50;99.90;;;;;;4825221;29;20203;-94
2023/04/01 13:00:13;;;;;;;3.50;3.20;;;9.60;99.90;;;;;;4824979;29;20222;-94
2023/04/01 13:02:54;;;;;;;5.10;3.10;;;9.70;58.70;;;;;;4839532;29;20694;-94
2023/04/01 13:05:48;;;;;;;4.63;3.20;;;9.70;55.40;;;;;;4831919;29;20598;-95
2023/04/01 13:08:31;;;;;;;3.43;3.03;;;9.70;99.20;;;;;;4829256;29;20204;-93
2023/04/01 13:11:09;;;;;;;4.60;3.03;;;9.60;99.90;;;;;;4827791;29;20203;-94
2023/04/01 13:13:54;;;;;;;2.93;2.63;;;9.60;99.90;;;;;;4825097;29;20207;-95
2023/04/01 13:16:25;;;;;;;3.17;2.87;;;9.70;1.00;;;;;;4829679;29;20204;-94
2023/04/01 13:19:03;;;;;;;3.13;2.83;;;9.70;1.00;;;;;;4827163;29;20207;-92
2023/04/01 13:21:42;;;;;;;2.90;2.50;;;9.60;1.00;;;;;;4825254;29;20207;-95
2023/04/01 13:24:32;;;;;;;4.27;2.83;;;9.60;1.00;;;;;;4825477;29;20200;-94
2023/04/01 13:27:07;;;;;;;3.17;2.60;;;9.60;1.00;;;;;;4824742;29;20204;-94
2023/04/01 13:29:40;;;;;;;4.77;3.70;;;9.60;1.00;;;;;;4825181;29;20720;-95
2023/04/01 13:32:25;;;;;;;3.87;3.27;;;9.50;1.00;;;;;;4825368;29;20183;-93
2023/04/01 13:35:04;;;;;;;4.00;3.10;;;9.50;1.00;;;;;;4873173;29;20210;-94
2023/04/01 13:37:52;;;;;;;3.30;3.00;;;9.60;1.00;;;;;;4881589;29;20210;-95
2023/04/01 13:40:39;;;;;;;4.73;3.00;;;9.70;1.00;;;;;;4885085;29;20197;-94
2023/04/01 13:43:15;;;;;;;3.17;2.87;;;9.60;99.90;;;;;;4901254;29;20201;-94
2023/04/01 13:45:57;;;;;;;2.80;2.50;;;9.60;99.90;;;;;;4881986;29;20210;-94
2023/04/01 13:48:48;;;;;;;3.37;2.50;;;9.60;99.90;;;;;;4863051;29;20198;-95
2023/04/01 13:52:06;;;;;;;3.23;2.40;;;9.60;1.00;;;;;;4859571;29;20210;-95
2023/04/01 13:55:00;;;;;;;3.13;2.33;;;9.60;1.00;;;;;;4861416;29;20234;-95
2023/04/01 13:57:44;;;;;;;3.10;2.57;;;9.70;99.90;;;;;;4859356;29;20206;-94
2023/04/01 14:00:26;;;;;;;3.93;3.27;;;9.90;99.90;;;;;;4863041;29;20212;-93
2023/04/01 14:03:16;;;;;;;2.87;2.50;;;9.90;99.90;;;;;;4893482;29;20206;-92
2023/04/01 14:05:54;;;;;;;6.27;3.00;;;9.80;88.70;;;;;;4881240;29;20209;-95
2023/04/01 14:08:37;;;;;;;3.10;2.13;;;9.80;82.60;;;;;;4881401;29;20687;-92
2023/04/01 14:11:14;;;;;;;5.73;3.33;;;9.70;1.00;;;;;;4881161;29;20198;-93
2023/04/01 14:13:51;;;;;;;4.37;3.43;;;9.70;99.90;;;;;;4880912;29;20674;-91
2023/04/01 14:17:00;;;;;;;3.30;3.00;;;9.80;99.90;;;;;;4880666;29;20212;-92
2023/04/01 14:19:52;;;;;;;3.87;3.10;;;9.80;46.60;;;;;;4881340;29;20217;-94
2023/04/01 14:22:26;;;;;;;3.37;3.07;;;9.80;1.00;;;;;;4880552;29;20736;-93
2023/04/01 14:25:09;;;;;;;4.63;3.00;;;9.80;1.00;;;;;;4881018;29;20277;-92
2023/04/01 14:27:44;;;;;;;3.43;2.90;;;9.80;1.00;;;;;;4880750;29;20226;-93
2023/04/01 14:30:37;;;;;;;4.30;3.87;;;9.70;1.00;;;;;;4862679;29;20217;-93
2023/04/01 14:33:16;;;;;;;6.30;2.60;;;9.60;1.00;;;;;;4862416;29;20233;-92
2023/04/01 14:35:55;;;;;;;4.30;2.63;;;9.60;1.00;;;;;;4862412;29;20199;-92
2023/04/01 14:38:49;;;;;;;4.57;3.27;;;9.50;1.00;;;;;;4861808;29;20237;-93
2023/04/01 14:41:27;;;;;;;3.57;2.23;;;9.50;1.00;;;;;;4862169;29;20228;-93
2023/04/01 14:44:28;;;;;;;3.53;2.43;;;9.40;1.00;;;;;;4872562;29;20686;-96
2023/04/01 14:47:28;;;;;;;4.50;2.70;;;9.30;1.00;;;;;;4842623;29;20203;-95
2023/04/01 14:50:04;;;;;;;3.10;2.60;;;9.20;1.00;;;;;;4846295;29;20217;-96
2023/04/01 14:52:34;;;;;;;3.47;2.27;;;9.10;1.00;;;;;;4855462;29;20240;-95
2023/04/01 14:55:03;;;;;;;4.90;3.20;;;9.10;1.00;;;;;;4856392;29;20559;-96
2023/04/01 14:57:32;;;;;;;3.10;2.80;;;9.00;1.00;;;;;;4855422;29;20254;-96
2023/04/01 15:00:02;;;;;;;3.37;2.90;;;9.00;1.00;;;;;;4858438;29;20265;-96
2023/04/01 15:02:49;;;;;;;3.50;2.40;;;8.90;1.00;;;;;;4859253;29;20219;-96
2023/04/01 15:05:28;;;;;;;3.90;2.43;;;8.80;1.00;;;;;;4866966;29;20186;-96
2023/04/01 15:08:05;;;;;;;4.13;2.20;;;8.70;1.00;;;;;;4860139;29;20284;-95
2023/04/01 15:11:06;;;;;;;3.47;2.10;;;8.70;1.00;;;;;;4852099;29;20256;-94
2023/04/01 15:13:59;;;;;;;4.43;2.53;;;8.60;1.00;;;;;;4844718;29;20232;-95
2023/04/01 15:16:32;;;;;;;3.63;2.50;;;8.60;1.00;;;;;;4869868;29;20573;-95
2023/04/01 15:19:15;;;;;;;2.23;1.97;;;8.60;1.00;;;;;;4869464;29;20207;-95
2023/04/01 15:21:59;;;;;;;2.80;2.23;;;8.60;1.00;;;;;;4834515;29;20212;-95
2023/04/01 15:24:30;;;;;;;3.23;1.83;;;8.50;1.00;;;;;;4872827;29;20200;-96
2023/04/01 15:27:13;;;;;;;4.43;2.50;;;8.40;1.00;;;;;;4891645;29;20206;-95
2023/04/01 15:30:04;;;;;;;2.97;2.23;;;8.40;1.00;;;;;;4904254;29;20298;-96
2023/04/01 15:32:43;;;;;;;3.43;2.40;;;8.30;1.00;;;;;;4910969;29;20259;-95
2023/04/01 15:35:22;;;;;;;4.47;2.80;;;8.20;1.00;;;;;;4909461;29;20202;-96
2023/04/01 15:37:56;;;;;;;3.50;2.80;;;8.20;1.00;;;;;;4902154;29;20237;-94
2023/04/01 15:40:29;;;;;;;4.20;3.00;;;8.10;26.60;;;;;;4892286;29;20681;-96
2023/04/01 15:43:08;;;;;;;3.70;2.73;;;8.10;85.70;;;;;;4892443;29;20748;-96
2023/04/01 15:45:48;;;;;;;3.93;3.03;;;8.00;99.90;;;;;;4893272;29;20653;-94
2023/04/01 15:48:27;;;;;;;5.17;3.23;;;8.00;99.90;;;;;;4908943;29;20207;-96
2023/04/01 15:51:18;;;;;;;4.43;2.67;;;7.90;99.90;;;;;;4893069;29;20206;-95
2023/04/01 15:54:17;;;;;;;4.33;2.73;;;7.80;99.90;;;;;;4889611;29;20261;-95
2023/04/01 15:56:54;;;;;;;4.27;2.60;;;7.80;38.50;;;;;;4892762;29;20208;-95
2023/04/01 15:59:45;;;;;;;3.57;2.27;;;7.70;54.50;;;;;;4890110;29;20213;-94
2023/04/01 16:02:22;;;;;;;4.37;2.87;;;7.60;99.90;;;;;;4897687;29;20199;-96
2023/04/01 16:04:56;;;;;;;5.63;3.13;;;7.50;99.90;;;;;;4902363;29;20241;-96
2023/04/01 16:07:42;;;;;;;3.17;2.50;;;7.50;99.90;;;;;;4902860;29;20202;-96
2023/04/01 16:10:28;;;;;;;4.50;2.90;;;7.40;99.90;;;;;;4895924;29;20191;-96
2023/04/01 16:13:13;;;;;;;4.93;2.70;;;7.40;99.90;;;;;;4891716;29;20237;-95
2023/04/01 16:15:53;;;;;;;5.13;2.77;;;7.40;99.90;;;;;;4869169;29;20283;-95
2023/04/01 16:18:45;;;;;;;5.07;2.97;;;7.40;99.90;;;;;;4880360;29;20286;-93
2023/04/01 16:21:22;;;;;;;3.50;2.80;;;7.40;99.90;;;;;;4878305;29;20281;-94
2023/04/01 16:23:56;;;;;;;4.77;2.90;;;7.40;99.90;;;;;;4884015;29;20823;-94
2023/04/01 16:26:29;;;;;;;4.00;2.60;;;7.30;99.90;;;;;;4884475;29;20188;-95
2023/04/01 16:29:04;;;;;;;4.03;2.50;;;7.20;99.90;;;;;;4891819;29;20209;-94
2023/04/01 16:31:38;;;;;;;5.43;2.73;;;7.20;99.90;;;;;;4884297;29;20194;-94
2023/04/01 16:34:10;;;;;;;4.00;2.80;;;7.10;99.90;;;;;;4883818;29;20688;-95
2023/04/01 16:36:43;;;;;;;3.67;2.47;;;7.00;99.90;;;;;;4885092;29;20198;-95
2023/04/01 16:39:23;;;;;;;4.93;2.50;;;7.00;99.90;;;;;;4876514;29;20222;-96
2023/04/01 16:41:54;;;;;;;5.00;2.90;;;6.90;99.90;;;;;;4884066;29;20198;-95
2023/04/01 16:44:23;;;;;;;3.73;2.57;;;6.80;99.90;;;;;;4883625;29;20230;-95
2023/04/01 16:46:54;;;;;;;4.87;2.60;;;6.80;99.90;;;;;;4884629;29;20210;-96
2023/04/01 16:49:32;;;;;;;3.03;2.40;;;6.80;99.90;;;;;;4883430;29;20571;-94
2023/04/01 16:52:14;;;;;;;5.20;2.80;;;6.80;1.00;;;;;;4883664;29;20207;-93
2023/04/01 16:54:48;;;;;;;3.37;2.53;;;6.80;99.90;;;;;;4886226;29;20229;-94
2023/04/01 16:57:22;;;;;;;5.30;2.90;;;6.70;1.00;;;;;;4880023;29;20205;-95
2023/04/01 16:59:58;;;;;;;5.83;2.87;;;6.70;1.00;;;;;;4884720;29;20201;-94
2023/04/01 17:02:29;;;;;;;3.83;2.87;;;6.60;1.00;;;;;;4879869;29;20209;-95
2023/04/01 17:05:01;;;;;;;5.33;3.20;;;6.60;1.00;;;;;;4881783;29;20202;-93
2023/04/01 17:07:42;;;;;;;6.00;3.00;;;6.50;99.90;;;;;;4885161;29;20678;-92
2023/04/01 17:10:37;;;;;;;3.50;2.83;;;6.50;99.90;;;;;;4885705;29;20540;-93
2023/04/01 17:13:36;;;;;;;5.23;3.20;;;6.40;1.00;;;;;;4885055;29;20204;-95
2023/04/01 17:16:17;;;;;;;4.80;3.30;;;6.40;1.00;;;;;;4879896;29;20193;-92
2023/04/01 17:18:54;;;;;;;4.23;3.07;;;6.30;1.00;;;;;;4893969;29;20195;-94
2023/04/01 17:21:27;;;;;;;4.13;2.63;;;6.30;1.00;;;;;;4880285;29;20201;-96
2023/04/01 17:24:04;;;;;;;4.77;2.87;;;6.30;1.00;;;;;;4881775;29;20641;-94
2023/04/01 17:26:41;;;;;;;5.13;2.90;;;6.20;1.00;;;;;;4882175;29;20207;-96
2023/04/01 17:29:16;;;;;;;4.73;2.97;;;6.20;1.00;;;;;;4881574;29;20214;-94
2023/04/01 17:31:51;;;;;;;4.33;3.23;;;6.20;1.00;;;;;;4882513;29;20196;-94
2023/04/01 17:34:47;;;;;;;4.37;3.20;;;6.20;1.00;;;;;;4881616;29;20215;-94
2023/04/01 17:37:35;;;;;;;3.60;2.67;;;6.10;1.00;;;;;;4881815;29;20186;-96
2023/04/01 17:40:21;;;;;;;4.13;2.60;;;6.10;99.90;;;;;;4881467;29;20670;-95
2023/04/01 17:42:56;;;;;;;13.00;2.77;;;6.10;99.90;;;;;;4863373;29;20273;-94
2023/04/01 17:45:29;;;;;;;5.97;2.47;;;6.00;99.90;;;;;;4899820;29;20199;-94
2023/04/01 17:48:05;;;;;;;4.10;2.57;;;6.00;99.90;;;;;;4900404;29;20678;-93
2023/04/01 17:50:48;;;;;;;3.93;2.50;;;6.00;99.90;;;;;;4883556;29;20198;-95
2023/04/01 17:53:34;;;;;;;3.63;2.60;;;6.00;99.90;;;;;;4891927;29;20200;-95
2023/04/01 17:56:10;;;;;;;5.50;2.33;;;6.00;99.90;;;;;;4899869;29;20200;-95
2023/04/01 17:58:47;;;;;;;4.33;2.83;;;6.00;99.90;;;;;;4900107;29;20270;-94
2023/04/01 18:01:32;;;;;;;3.93;2.93;;;6.00;99.90;;;;;;4881137;29;20185;-95
2023/04/01 18:04:26;;;;;;;5.97;3.23;;;6.00;98.30;;;;;;4881414;29;20200;-93
2023/04/01 18:07:14;;;;;;;6.93;3.13;;;5.90;99.90;;;;;;4878756;29;20278;-96
2023/04/01 18:09:51;;;;;;;3.67;2.43;;;5.90;99.90;;;;;;4881647;29;20193;-94
2023/04/01 18:12:30;;;;;;;5.00;2.90;;;5.90;1.00;;;;;;4862843;29;20568;-94
2023/04/01 18:15:16;;;;;;;3.43;2.53;;;5.90;99.90;;;;;;4879404;29;20700;-93
2023/04/01 18:17:56;;;;;;;4.63;2.53;;;5.90;99.90;;;;;;4881133;29;20189;-94
2023/04/01 18:20:34;;;;;;;4.83;2.80;;;5.90;99.90;;;;;;4880916;29;20183;-93
2023/04/01 18:23:05;;;;;;;3.37;2.47;;;5.90;99.90;;;;;;4881046;29;20638;-95
2023/04/01 18:25:37;;;;;;;4.73;3.10;;;5.90;99.90;;;;;;4880920;29;20189;-92
2023/04/01 18:28:24;;;;;;;4.80;3.73;;;5.90;99.90;;;;;;4881061;29;20290;-93
2023/04/01 18:30:56;;;;;;;4.43;2.83;;;5.90;99.90;;;;;;4862341;29;20204;-93
2023/04/01 18:33:30;;;;;;;4.67;2.80;;;5.90;99.90;;;;;;4862507;29;20238;-93
2023/04/01 18:36:08;;;;;;;6.00;3.13;;;5.80;99.90;;;;;;4874923;29;20272;-95
2023/04/01 18:38:40;;;;;;;3.87;2.70;;;5.80;99.90;;;;;;4880257;29;20239;-94
2023/04/01 18:41:15;;;;;;;5.07;3.70;;;5.90;99.90;;;;;;4883635;29;20190;-96
2023/04/01 18:43:55;;;;;;;5.93;3.40;;;5.80;99.90;;;;;;4892190;29;20202;-91
2023/04/01 18:46:31;;;;;;;5.47;4.07;;;5.80;99.90;;;;;;4881408;29;20254;-94
2023/04/01 18:49:08;;;;;;;7.87;4.20;;;5.80;98.50;;;;;;4880771;29;20247;-95
2023/04/01 18:51:45;;;;;;;8.60;4.57;;;5.70;99.90;;;;;;4882723;29;20201;-95
2023/04/01 18:54:19;;;;;;;9.30;4.00;;;5.70;99.90;;;;;;4882524;29;20231;-95
2023/04/01 18:56:47;;;;;;;9.20;4.30;;;5.70;99.90;;;;;;4881998;29;20267;-96
2023/04/01 18:59:21;;;;;;;5.00;3.40;;;5.70;99.90;;;;;;4881556;29;20202;-95
2023/04/01 19:02:01;;;;;;;9.83;4.73;;;5.70;99.90;;;;;;4884789;29;20211;-96
2023/04/01 19:04:34;;;;;;;6.80;4.00;;;5.70;99.90;;;;;;4881423;29;20646;-94
2023/04/01 19:07:02;;;;;;;5.10;3.67;;;5.60;99.90;;;;;;4881930;29;20223;-95
2023/04/01 19:09:32;;;;;;;7.33;4.47;;;5.60;99.90;;;;;;4881717;29;20192;-96
2023/04/01 19:12:25;;;;;;;7.40;4.60;;;5.60;99.90;;;;;;4882282;29;20201;-95
2023/04/01 19:15:15;;;;;;;6.80;4.70;;;5.60;99.90;;;;;;4880823;29;20219;-95
2023/04/01 19:18:00;;;;;;;7.00;4.17;;;5.60;99.90;;;;;;4885963;29;20205;-96
2023/04/01 19:20:31;;;;;;;8.43;3.77;;;5.50;99.90;;;;;;4883408;29;20191;-96
2023/04/01 19:23:31;;;;;;;5.53;3.37;;;5.50;99.90;;;;;;4884441;29;20257;-96
2023/04/01 19:26:01;;;;;;;5.57;4.13;;;5.50;99.90;;;;;;4883063;29;20215;-96
2023/04/01 19:28:44;;;;;;;7.23;4.53;;;5.40;99.90;;;;;;4881995;29;20216;-96
2023/04/01 19:31:26;;;;;;;7.23;4.20;;;5.40;99.90;;;;;;4881118;29;20187;-96
2023/04/01 19:34:06;;;;;;;10.93;4.33;;;5.40;99.90;;;;;;4862889;29;20217;-95
2023/04/01 19:36:46;;;;;;;10.33;4.93;;;5.40;99.90;;;;;;4880975;29;20204;-96
2023/04/01 19:39:29;;;;;;;7.93;4.00;;;5.40;99.90;;;;;;4886791;29;20579;-96
2023/04/01 19:42:04;;;;;;;9.20;4.03;;;5.40;99.90;;;;;;4884333;29;20211;-96
2023/04/01 19:44:42;;;;;;;12.07;6.00;;;5.40;99.90;;;;;;4884287;29;20197;-95
2023/04/01 19:47:21;;;;;;;7.93;4.10;;;5.40;99.90;;;;;;4885199;29;20286;-96
2023/04/01 19:50:01;;;;;;;10.27;5.53;;;5.40;99.90;;;;;;4887079;29;20217;-96
2023/04/01 19:52:32;;;;;;;7.10;4.07;;;5.30;99.90;;;;;;4869409;29;20212;-95